Home > Products > Valid Products > TAF

000
FTUS42 KMLB 211000 AAA
TAFMCO
TAF AMD
KMCO 211029Z 2110/2206 02003KT P6SM BKN080 OVC250
     FM211400 16004KT P6SM SCT025 OVC050
     FM211800 19007KT P6SM SCT020 OVC040
     FM220300 15005KT P6SM VCSH SCT010 BKN020 OVC040=



000
FTUS42 KMLB 210700 AAA
TAFVRB
TAF AMD
KVRB 210739Z 2108/2206 19003KT P6SM SCT050 BKN100
      TEMPO 2108/2112 5SM BR FEW010
     FM211700 15008KT P6SM SCT035 OVC080
     FM220200 19004KT P6SM SCT030 OVC060=



000
FTUS42 KMLB 210500
TAFMLB
TAF
KMLB 210535Z 2106/2206 20004KT P6SM SCT050 OVC100
      TEMPO 2109/2112 5SM BR FEW010
     FM211800 15008KT P6SM SCT035 OVC060
     FM220200 20004KT P6SM SCT025 OVC050=



000
FTUS42 KMLB 210500
TAFVRB
TAF
KVRB 210535Z 2106/2206 19003KT P6SM SCT050 BKN100
      TEMPO 2109/2112 5SM BR FEW010
     FM211700 15008KT P6SM SCT035 OVC080
     FM220200 19004KT P6SM SCT030 OVC060=



000
FTUS42 KMLB 210500
TAFDAB
TAF
KDAB 210535Z 2106/2206 VRB03KT P6SM OVC100
     FM210800 VRB03KT 5SM BR BKN015 OVC030
     FM211400 19004KT P6SM SCT015 OVC030
     FM211800 21007KT P6SM SCT020 OVC050
     FM220200 15004KT P6SM VCSH SCT015 BKN025 OVC040=



000
FTUS42 KMLB 210500
TAFMCO
TAF
KMCO 210535Z 2106/2206 07003KT P6SM BKN080 OVC250
     FM210900 VRB03KT 5SM BR BKN025 OVC060
     FM211400 16004KT P6SM SCT025 OVC050
     FM211800 19007KT P6SM SCT020 OVC040
     FM220300 15005KT P6SM VCSH SCT010 BKN020 OVC040=



000
FTUS42 KMLB 210500
TAFSFB
TAF
KSFB 210535Z 2106/2206 04003KT P6SM BKN080 OVC250
     FM210900 08003KT 5SM BR BKN020 OVC050
     FM211400 16004KT P6SM SCT025 OVC050
     FM211800 20007KT P6SM SCT020 OVC040
     FM220300 15004KT P6SM VCSH SCT010 BKN020 OVC040=



000
FTUS42 KMLB 210200 AAA
TAFMCO
TAF AMD
KMCO 210258Z 2103/2124 12004KT P6SM FEW150 BKN200
     FM210800 VRB03KT 5SM BR BKN025 OVC060
     FM211400 16004KT P6SM SCT025 BKN090=



000
FTUS42 KMLB 202300
TAFMCO
TAF
KMCO 202320Z 2100/2124 12004KT P6SM FEW100 BKN200
     FM210800 VRB03KT 5SM BR BKN025 OVC060
     FM211400 16004KT P6SM SCT025 BKN090=



000
FTUS42 KMLB 202300
TAFDAB
TAF
KDAB 202320Z 2100/2124 04004KT P6SM FEW035 SCT090 SCT110
     FM210600 VRB03KT 5SM BR BKN025 OVC060
     FM211400 18004KT P6SM SCT025 BKN090
     FM211900 21006KT P6SM SCT035 BKN090=



000
FTUS42 KMLB 202300
TAFVRB
TAF
KVRB 202320Z 2100/2124 15004KT P6SM FEW050 SCT090 BKN200
     FM210400 19003KT P6SM SCT060 OVC120
     FM211400 20004KT P6SM SCT025 BKN090=



000
FTUS42 KMLB 202300
TAFSFB
TAF
KSFB 202320Z 2100/2124 09004KT P6SM BKN100 BKN200
     FM210800 VRB03KT 5SM BR BKN025 OVC060
     FM211400 17004KT P6SM SCT025 BKN090=



000
FTUS42 KMLB 202300
TAFMLB
TAF
KMLB 202320Z 2100/2124 11004KT P6SM FEW045 SCT100 BKN200
     FM210600 VRB03KT 5SM BR SCT025 BKN060 OVC120
     FM211400 20004KT P6SM SCT025 BKN090=



000
FTUS42 KMLB 202000 AAA
TAFMCO
TAF AMD
KMCO 202059Z 2021/2118 18004KT P6SM FEW045 BKN110 BKN250
     FM202300 09004KT P6SM SCT080 OVC120
     FM210800 VRB03KT 5SM BR BKN025 OVC060=



000
FTUS42 KMLB 201700 RRA
TAFSFB
TAF
KSFB 201745Z 2018/2112 24003KT P6SM SKC
     FM202200 08004KT P6SM BKN080 OVC120
     FM210800 VRB03KT 5SM BR BKN025 OVC060=



000
FTUS42 KMLB 201700 RRA
TAFMLB
TAF
KMLB 201745Z 2018/2112 VRB03KT P6SM SCT030 BKN040
     FM202000 11008KT P6SM SCT080 BKN120
     FM210600 VRB03KT 5SM BR SCT025 BKN060 OVC120=



000
FTUS42 KMLB 201700 RRA
TAFDAB
TAF
KDAB 201745Z 2018/2112 22005KT P6SM SCT030 SCT050 BKN110
     FM202000 06006KT P6SM BKN080 OVC120
     FM210600 VRB03KT 5SM BR BKN025 OVC060=



000
FTUS42 KMLB 201700 RRA
TAFVRB
TAF
KVRB 201745Z 2018/2112 17005KT P6SM BKN040
     FM202000 12008KT P6SM SCT080 BKN120
     FM210400 19003KT P6SM SCT060 OVC120=



000
FTUS42 KMLB 201700 RRA
TAFMCO
TAF
KMCO 201745Z 2018/2112 16013G17KT P6SM FEW035 FEW150 SCT250
     FM202300 09004KT P6SM SCT080 OVC120
     FM210800 VRB03KT 5SM BR BKN025 OVC060=



000
FTUS42 KMLB 201500 AAA
TAFMCO
TAF AMD
KMCO 201510Z 2015/2112 17005KT P6SM SCT100 BKN250
     FM202300 09004KT P6SM SCT080 OVC120
     FM210800 VRB03KT 5SM BR BKN025 OVC060=



000
FTUS42 KMLB 201100
TAFMLB
TAF
KMLB 201130Z 2012/2112 26003KT P6SM SCT045 BKN250
     FM201500 18006KT P6SM SCT100 BKN250
     FM202000 11008KT P6SM SCT080 BKN120
     FM210600 VRB03KT 5SM BR SCT025 BKN060 OVC120=



000
FTUS42 KMLB 201100
TAFVRB
TAF
KVRB 201130Z 2012/2112 25003KT P6SM SCT045 BKN250
     FM201500 17006KT P6SM SCT100 BKN250
     FM202000 12008KT P6SM SCT080 BKN120
     FM210400 19003KT P6SM SCT060 OVC120=



000
FTUS42 KMLB 201100
TAFSFB
TAF
KSFB 201130Z 2012/2112 VRB03KT P6SM FEW030 SCT250
     FM201500 16005KT P6SM SCT100 BKN250
     FM202200 08004KT P6SM BKN080 OVC120
     FM210800 VRB03KT 5SM BR BKN025 OVC060=



000
FTUS42 KMLB 201100
TAFDAB
TAF
KDAB 201130Z 2012/2112 00000KT P6SM SCT035 SCT050
     FM201500 15005KT P6SM SCT100 BKN250
     FM202000 06006KT P6SM BKN080 OVC120
     FM210600 VRB03KT 5SM BR BKN025 OVC060=



000
FTUS42 KMLB 201100
TAFMCO
TAF
KMCO 201130Z 2012/2112 VRB03KT P6SM FEW030 SCT250
     FM201500 17005KT P6SM SCT100 BKN250
     FM202300 09004KT P6SM BKN080 OVC120
     FM210800 VRB03KT 5SM BR BKN025 OVC060=



000
FTUS42 KMLB 201000 AAB
TAFMLB
TAF AMD
KMLB 201004Z 2010/2106 00000KT P6SM BKN035
      TEMPO 2010/2012 3SM BR BKN030
     FM201400 19005KT P6SM FEW100 SCT250
     FM201900 11008KT P6SM SCT100 BKN250=



000
FTUS42 KMLB 201000 AAB
TAFMLB
TAF AMD
KMLB 201004Z 2010/2106 00000KT P6SM BKN035
      TEMPO 2010/2012 3SM BR BKN030
     FM201400 19005KT P6SM FEW100 SCT250
     FM201900 11008KT P6SM SCT100 BKN250=



000
FTUS42 KMLB 200900 AAA
TAFMCO
TAF AMD
KMCO 200930Z 2010/2106 00000KT P6SM FEW035 SCT150 BKN250
     FM201500 19005KT P6SM SCT100 BKN250
     FM202300 10004KT P6SM BKN100 OVC250=



000
FTUS42 KMLB 200700 AAA
TAFMLB
TAF AMD
KMLB 200753Z 2008/2106 00000KT 3SM BR SKC
      TEMPO 2008/2012 1SM BR FEW250
     FM201400 19005KT P6SM FEW100 SCT250
     FM201900 11008KT P6SM SCT100 BKN250=



000
FTUS42 KMLB 200700 AAA
TAFMLB
TAF AMD
KMLB 200753Z 2008/2106 00000KT 3SM BR SKC
      TEMPO 2008/2012 1SM BR FEW250
     FM201400 19005KT P6SM FEW100 SCT250
     FM201900 11008KT P6SM SCT100 BKN250=



000
FTUS42 KMLB 200500
TAFMLB
TAF
KMLB 200530Z 2006/2106 00000KT P6SM SKC
      TEMPO 2009/2013 5SM BR FEW250
     FM201500 19005KT P6SM FEW100 SCT250
     FM201900 11008KT P6SM SCT100 BKN250=



000
FTUS42 KMLB 200500
TAFVRB
TAF
KVRB 200530Z 2006/2106 00000KT P6SM SKC
      TEMPO 2009/2013 5SM BR FEW250
     FM201500 20005KT P6SM FEW100 SCT250
     FM201900 13008KT P6SM SCT100 BKN250=



000
FTUS42 KMLB 200500
TAFDAB
TAF
KDAB 200530Z 2006/2106 00000KT P6SM SCT250
      TEMPO 2009/2013 5SM BR FEW250
     FM201500 18004KT P6SM FEW100 SCT250
     FM201900 09006KT P6SM SCT100 BKN250=



000
FTUS42 KMLB 200500
TAFSFB
TAF
KSFB 200530Z 2006/2106 00000KT P6SM FEW150 BKN250
      TEMPO 2009/2013 5SM BR SCT250
     FM201500 18005KT P6SM SCT100 BKN250
     FM202200 08004KT P6SM BKN100 OVC250=



000
FTUS42 KMLB 200500
TAFMCO
TAF
KMCO 200530Z 2006/2106 00000KT P6SM SCT150 BKN250
      TEMPO 2009/2013 5SM BR SCT250
     FM201500 19005KT P6SM SCT100 BKN250
     FM202300 08004KT P6SM BKN100 OVC250=



000
FTUS42 KMLB 200300 AAA
TAFMCO
TAF AMD
KMCO 200302Z 2003/2024 05003KT P6SM BKN250
     FM200900 00000KT 5SM BR BKN250
     FM201400 18004KT P6SM FEW040 BKN250=



000
FTUS42 KMLB 192300
TAFDAB
TAF
KDAB 192320Z 2000/2024 00000KT P6SM FEW150 BKN250
     FM200900 00000KT 5SM BR BKN250
     FM201400 VRB03KT P6SM FEW040 BKN250
     FM202000 06006KT P6SM FEW040 SCT250=



000
FTUS42 KMLB 192300
TAFMCO
TAF
KMCO 192320Z 2000/2024 03003KT P6SM BKN250
     FM200900 00000KT 5SM BR BKN250
     FM201400 18004KT P6SM FEW040 BKN250=



000
FTUS42 KMLB 192300
TAFVRB
TAF
KVRB 192320Z 2000/2024 VRB03KT P6SM BKN250
     FM200900 00000KT 6SM BR BKN250
     FM201400 19004KT P6SM BKN250
     FM201800 09007KT P6SM FEW040 SCT250=



000
FTUS42 KMLB 192300
TAFSFB
TAF
KSFB 192320Z 2000/2024 00000KT P6SM BKN250
     FM200900 00000KT 5SM BR BKN250
     FM201400 VRB03KT P6SM FEW040 BKN250=



000
FTUS42 KMLB 192300
TAFMLB
TAF
KMLB 192320Z 2000/2024 VRB03KT P6SM BKN250
     FM200900 00000KT 6SM BR BKN250
     FM201400 20004KT P6SM BKN250
     FM201800 09007KT P6SM FEW040 SCT250=



000
FTUS42 KMLB 192100 AAA
TAFMCO
TAF AMD
KMCO 192105Z 1921/2018 05006KT P6SM BKN250
     FM200200 06003KT P6SM BKN250
     FM200900 VRB02KT 5SM BR BKN250
     FM201400 17005KT P6SM BKN250=



000
FTUS42 KMLB 191700
TAFMLB
TAF
KMLB 191720Z 1918/2018 06007KT P6SM SCT120 SCT250
     FM201000 VRB02KT 6SM BR BKN250
     FM201400 23004KT P6SM BKN250=



000
FTUS42 KMLB 191700
TAFSFB
TAF
KSFB 191720Z 1918/2018 07005KT P6SM SCT200 BKN250
     FM200900 VRB02KT 5SM BR BKN250
     FM201400 18005KT P6SM BKN250=



000
FTUS42 KMLB 191700
TAFDAB
TAF
KDAB 191720Z 1918/2018 05006KT P6SM FEW040 SCT150 SCT250
     FM200900 VRB02KT 6SM BR BKN250
     FM201400 VRB03KT P6SM BKN250=



000
FTUS42 KMLB 191700
TAFVRB
TAF
KVRB 191720Z 1918/2018 05007KT P6SM SCT250
     FM201000 VRB02KT 6SM BR BKN250
     FM201400 22004KT P6SM BKN250=



000
FTUS42 KMLB 191700
TAFMCO
TAF
KMCO 191720Z 1918/2018 04005KT P6SM SCT200 BKN250
     FM191900 08005KT P6SM SCT200 BKN250
     FM200900 VRB02KT 5SM BR BKN250
     FM201400 17005KT P6SM BKN250=



000
FTUS42 KMLB 191400 AAA
TAFMCO
TAF AMD
KMCO 191459Z 1915/2012 02005KT P6SM SCT200 BKN250
     FM191900 08005KT P6SM SCT100 BKN250=



000
FTUS42 KMLB 191100
TAFDAB
TAF
KDAB 191120Z 1912/2012 00000KT P6SM SCT150 BKN250
     FM191500 36004KT P6SM FEW120 SCT250
     FM191800 05006KT P6SM SCT100 BKN250=



000
FTUS42 KMLB 191100
TAFMCO
TAF
KMCO 191120Z 1912/2012 34003KT P6SM SCT150 BKN250
     FM191500 02004KT P6SM FEW120 SCT250
     FM191900 08005KT P6SM SCT100 BKN250=



000
FTUS42 KMLB 191100
TAFMLB
TAF
KMLB 191120Z 1912/2012 30003KT P6SM BKN250
     FM191600 01004KT P6SM FEW120 SCT250
     FM191800 07007KT P6SM SCT100 BKN250=



000
FTUS42 KMLB 191100
TAFSFB
TAF
KSFB 191120Z 1912/2012 29003KT P6SM SCT150 BKN250
     FM191500 02004KT P6SM FEW120 SCT250
     FM191800 07005KT P6SM SCT100 BKN250=



000
FTUS42 KMLB 191100
TAFVRB
TAF
KVRB 191120Z 1912/2012 31003KT P6SM SCT250
     FM191500 36005KT P6SM SCT250
     FM191800 08007KT P6SM SCT100 BKN250=



000
FTUS42 KMLB 190900 AAA
TAFMCO
TAF AMD
KMCO 190923Z 1909/2006 00000KT P6SM SCT150 BKN250
     FM191500 03004KT P6SM SCT120 BKN250
     FM191800 08005KT P6SM SCT100 BKN250=



000
FTUS42 KMLB 190900 AAA
TAFMCO
TAF AMD
KMCO 190923Z 1909/2006 00000KT P6SM SCT150 BKN250
     FM191500 03004KT P6SM SCT120 BKN250
     FM191800 08005KT P6SM SCT100 BKN250=



000
FTUS42 KMLB 190500
TAFMCO
TAF
KMCO 190525Z 1906/2006 VRB02KT P6SM BKN250
     FM191500 03004KT P6SM BKN250
     FM191800 08005KT P6SM BKN250=



000
FTUS42 KMLB 190500
TAFMLB
TAF
KMLB 190525Z 1906/2006 31003KT P6SM SCT250
     FM191600 01004KT P6SM SCT100 BKN250
     FM191800 07006KT P6SM SCT100 BKN250=



000
FTUS42 KMLB 190500
TAFSFB
TAF
KSFB 190525Z 1906/2006 VRB02KT P6SM BKN250
     FM191500 02004KT P6SM BKN250
     FM191800 07005KT P6SM BKN250=



000
FTUS42 KMLB 190500
TAFVRB
TAF
KVRB 190525Z 1906/2006 00000KT P6SM SCT250
     FM191600 01005KT P6SM FEW100 SCT250
     FM191800 07007KT P6SM SCT100 BKN250=



000
FTUS42 KMLB 190500
TAFDAB
TAF
KDAB 190525Z 1906/2006 00000KT P6SM BKN250
     FM191500 01004KT P6SM BKN250
     FM191800 06005KT P6SM BKN250=



000
FTUS42 KMLB 190200 AAA
TAFMCO
TAF AMD
KMCO 190256Z 1903/1924 VRB02KT P6SM BKN250
     FM191400 01004KT P6SM BKN250
     FM191600 04006KT P6SM BKN250=



000
FTUS42 KMLB 182300
TAFDAB
TAF
KDAB 182339Z 1900/1924 00000KT P6SM SCT140 BKN200
     FM190100 34002KT P6SM BKN250
     FM191500 01004KT P6SM BKN250
     FM191700 04005KT P6SM BKN250=



000
FTUS42 KMLB 182300
TAFMLB
TAF
KMLB 182339Z 1900/1924 03003KT P6SM SCT250
     FM190100 00000KT P6SM SCT250
     FM191500 36005KT P6SM BKN250
     FM191700 04007KT P6SM BKN250=



000
FTUS42 KMLB 182300
TAFSFB
TAF
KSFB 182339Z 1900/1924 00000KT P6SM BKN250
     FM190100 34002KT P6SM BKN250
     FM191400 01004KT P6SM BKN250
     FM191600 04005KT P6SM BKN250=



000
FTUS42 KMLB 182300
TAFMCO
TAF
KMCO 182339Z 1900/1924 31006KT P6SM BKN250
     FM190100 34002KT P6SM BKN250
     FM191400 01004KT P6SM BKN250
     FM191600 04006KT P6SM BKN250=



000
FTUS42 KMLB 182300
TAFVRB
TAF
KVRB 182339Z 1900/1924 00000KT P6SM SCT250
     FM190100 00000KT P6SM SCT250
     FM191500 35005KT P6SM SCT250
     FM191700 05007KT P6SM SCT250=



000
FTUS42 KMLB 182000 AAA
TAFMCO
TAF AMD
KMCO 182059Z 1821/1918 29007KT P6SM SCT190 BKN250
     FM190100 34002KT P6SM BKN250
     FM191400 01004KT P6SM BKN250
     FM191600 04006KT P6SM BKN250=



000
FTUS42 KMLB 182000 AAA
TAFMLB
TAF AMD
KMLB 182017Z 1820/1918 05007KT P6SM SCT250
     FM190100 00000KT P6SM SCT250
     FM191500 36005KT P6SM BKN250
     FM191700 04007KT P6SM BKN250=



000
FTUS42 KMLB 181700
TAFVRB
TAF
KVRB 181720Z 1818/1918 30007KT P6SM SCT250
     FM182000 36007KT P6SM SCT250
     FM190100 00000KT P6SM SCT250
     FM191500 35005KT P6SM SCT250
     FM191700 05007KT P6SM SCT250=



000
FTUS42 KMLB 181700
TAFDAB
TAF
KDAB 181720Z 1818/1918 33004KT P6SM SCT250
     FM190100 34002KT P6SM BKN250
     FM191500 01004KT P6SM BKN250
     FM191700 04005KT P6SM BKN250=



000
FTUS42 KMLB 181700
TAFMLB
TAF
KMLB 181720Z 1818/1918 30006KT P6SM SCT250
     FM182000 02007KT P6SM SCT250
     FM190100 00000KT P6SM SCT250
     FM191500 36005KT P6SM BKN250
     FM191700 04007KT P6SM BKN250=



000
FTUS42 KMLB 181700
TAFMCO
TAF
KMCO 181720Z 1818/1918 33005KT P6SM SCT250
     FM190100 34002KT P6SM BKN250
     FM191400 01004KT P6SM BKN250
     FM191600 04006KT P6SM BKN250=



000
FTUS42 KMLB 181700
TAFSFB
TAF
KSFB 181720Z 1818/1918 33006KT P6SM SCT250
     FM190100 34002KT P6SM BKN250
     FM191400 01004KT P6SM BKN250
     FM191600 04005KT P6SM BKN250=



000
FTUS42 KMLB 181500 AAA
TAFMCO
TAF AMD
KMCO 181500Z 1815/1912 33005KT P6SM FEW150 SCT250
     FM190100 34002KT P6SM BKN250=



000
FTUS42 KMLB 181100
TAFMCO
TAF
KMCO 181123Z 1812/1912 31005KT P6SM BKN250
     FM190100 34002KT P6SM BKN250=



000
FTUS42 KMLB 181100
TAFMLB
TAF
KMLB 181123Z 1812/1912 30006KT P6SM SCT250
     FM182000 02007KT P6SM SCT250
     FM190100 00000KT P6SM SCT250=



000
FTUS42 KMLB 181100
TAFDAB
TAF
KDAB 181123Z 1812/1912 32004KT P6SM BKN250
     FM190100 34002KT P6SM BKN250=



000
FTUS42 KMLB 181100
TAFSFB
TAF
KSFB 181123Z 1812/1912 31005KT P6SM BKN250
     FM190100 34002KT P6SM BKN250=



000
FTUS42 KMLB 181100
TAFVRB
TAF
KVRB 181123Z 1812/1912 30005KT P6SM SCT250
     FM182000 36007KT P6SM SCT250
     FM190100 00000KT P6SM SCT250=



    US Dept of Commerce
    National Oceanic and Atmospheric Administration
    National Weather Service
    1325 East West Highway
    Silver Spring, MD 20910
    Page Author: NWS Internet Services Team
Disclaimer
Information Quality
Credits
Glossary
Privacy Policy
Freedom of Information Act (FOIA)
About Us
Career Opportunities